CMA-CGM Fort Saint Pierre — FQFM — position and weather

sailwx.info

Track history (hours):
 
Tides and Currents Weather Stations Pressure Air Temp Water Temp Dewpoint Dewpoint Depression Visibility Wind Speed Wind Dir Waves Ship Positions

CMA-CGM Fort Saint Pierre

Last reported at 2017-Jul-09 00:15 UTC. Time now 2017-Jul-21 22:49 UTC.
Position N 49°36' W 007°37'.
Warning: this ship's position is 12 days out of date.

Length 197 m; beam 30 m.

Type: Ship (hazmat cat D). MMSI: 226328000.

Date/timePositionNaut miles runAvg speedWind from/ knotsBaromVisibWave heightAir tempDewpointWater temp
2017-Jul-09 00:15N 49°36' W 007°37'518.5
2017-Jul-09 00:00N 49°37' W 007°30'918.9
2017-Jul-08 23:30N 49°40' W 007°16'918.6
2017-Jul-08 23:00N 49°40' W 007°02'1019.0
2017-Jul-08 22:30N 49°41' W 006°47'1818.9
2017-Jul-08 21:34N 49°43' W 006°20'219.4
2017-Jul-08 21:26N 49°44' W 006°16'1219.1
2017-Jul-08 20:48N 49°45' W 005°57'818.8
2017-Jul-08 20:21N 49°46' W 005°45'917.6
2017-Jul-08 19:52N 49°47' W 005°31'615.4
2017-Jul-08 19:28N 49°48' W 005°22'715.2
2017-Jul-08 19:00N 49°49' W 005°11'714.8
2017-Jul-08 18:30N 49°50' W 004°60'714.7
2017-Jul-08 18:00N 49°51' W 004°48'714.6
2017-Jul-08 17:30N 49°52' W 004°37'714.4
2017-Jul-08 17:00N 49°53' W 004°26'714.5
2017-Jul-08 16:30N 49°53' W 004°15'714.6
2017-Jul-08 16:00N 49°54' W 004°04'714.9
2017-Jul-08 15:30N 49°55' W 003°52'815.6
2017-Jul-08 15:00N 49°56' W 003°40'1818.1
2017-Jul-08 14:00N 49°59' W 003°12'816.8
2017-Jul-08 13:31N 49°60' W 002°60'917.1
2017-Jul-08 13:00N 50°02' W 002°47'1217.3
2017-Jul-08 12:18N 50°04' W 002°28'517.2
2017-Jul-08 12:00N 50°04' W 002°20'817.0
2017-Jul-08 11:30N 50°05' W 002°07'1316.0
2017-Jul-08 10:42N 50°05' W 001°47'614.6
2017-Jul-08 10:16N 49°59' W 001°41'5213.5
2017-Jul-08 06:23N 49°37' W 000°28'513.5
2017-Jul-08 05:59N 49°35' W 000°20'714.2
2017-Jul-08 05:31N 49°32' W 000°11'612.7
2017-Jul-08 05:00N 49°30' W 000°01'510.4
2017-Jul-08 04:31N 49°28' E 000°06'3 5.3
2017-Jul-08 04:00N 49°27' E 000°10'0 0.0
2017-Jul-08 03:30N 49°27' E 000°10'0 0.0
2017-Jul-08 03:00N 49°27' E 000°10'0 0.0
2017-Jul-08 02:30N 49°27' E 000°10'0 0.0
2017-Jul-08 02:00N 49°27' E 000°10'0 0.0
2017-Jul-08 01:30N 49°27' E 000°10'0 0.0
2017-Jul-08 01:00N 49°27' E 000°10'0 0.0
2017-Jul-08 00:30N 49°27' E 000°10'0 0.0
2017-Jul-08 00:00N 49°27' E 000°10'0 0.0
2017-Jul-07 23:30N 49°27' E 000°10'0 0.0
2017-Jul-07 23:00N 49°27' E 000°10'0 0.0
2017-Jul-07 22:30N 49°27' E 000°10'0 0.0
2017-Jul-07 22:00N 49°27' E 000°10'0 0.0
2017-Jul-07 21:30N 49°27' E 000°10'0 0.0
2017-Jul-07 21:00N 49°27' E 000°10'0 0.0
2017-Jul-07 20:30N 49°27' E 000°10'0 0.0
2017-Jul-07 20:00N 49°27' E 000°10'0 0.0
2017-Jul-07 19:30N 49°27' E 000°10'0 0.0
2017-Jul-07 19:00N 49°27' E 000°10'0 0.4
2017-Jul-07 18:31N 49°27' E 000°10'2 4.4
2017-Jul-07 18:01N 49°28' E 000°06'714.2
2017-Jul-07 17:30N 49°30' W 000°04'510.5
2017-Jul-07 17:00N 49°33' W 000°11'3 5.5
2017-Jul-07 16:30N 49°36' W 000°11'611.9
2017-Jul-07 16:00N 49°42' W 000°11'613.1
2017-Jul-07 15:31N 49°48' W 000°11'612.9
2017-Jul-07 15:00N 49°55' W 000°11'1312.8
2017-Jul-07 14:00N 50°07' W 000°11'713.4
2017-Jul-07 13:30N 50°14' W 000°11'714.8
2017-Jul-07 13:00N 50°21' W 000°11'917.4
2017-Jul-07 12:30N 50°28' W 000°01'918.4
2017-Jul-07 12:01N 50°31' E 000°12'918.4
2017-Jul-07 11:30N 50°33' E 000°27'917.8
2017-Jul-07 11:01N 50°35' E 000°40'917.3
2017-Jul-07 10:31N 50°40' E 000°51'917.0
2017-Jul-07 10:00N 50°45' E 001°02'816.5
2017-Jul-07 09:30N 50°50' E 001°12'815.4
2017-Jul-07 09:00N 50°56' E 001°20'713.2
2017-Jul-07 08:30N 51°01' E 001°28'714.2
2017-Jul-07 08:00N 51°06' E 001°36'815.4
2017-Jul-07 07:30N 51°11' E 001°44'815.5
2017-Jul-07 07:00N 51°18' E 001°51'918.5
2017-Jul-07 06:31N 51°25' E 002°01'816.3
2017-Jul-07 06:00N 51°21' E 002°13'3 7.0
2017-Jul-07 05:30N 51°20' E 002°18'1 2.2
2017-Jul-07 05:00N 51°21' E 002°20'4 7.4
2017-Jul-07 04:30N 51°22' E 002°26'917.7
2017-Jul-07 04:00N 51°23' E 002°40'612.7
2017-Jul-07 03:31N 51°22' E 002°50'917.3
2017-Jul-07 03:00N 51°24' E 003°03'917.8
2017-Jul-07 02:30N 51°25' E 003°17'918.1
2017-Jul-07 02:00N 51°26' E 003°32'611.4
2017-Jul-07 01:30N 51°26' E 003°41'715.0
2017-Jul-07 01:00N 51°21' E 003°50'814.7
2017-Jul-07 00:29N 51°26' E 003°59'612.2
2017-Jul-07 00:00N 51°22' E 004°06'4 9.2
2017-Jul-06 23:31N 51°22' E 004°13'2 9.8
2017-Jul-06 23:16N 51°21' E 004°16'43 1.1
2017-Jul-05 08:30N 51°48' E 003°22'0 0.0
2017-Jul-05 08:00N 51°48' E 003°22'0 0.0
2017-Jul-05 07:30N 51°48' E 003°22'0 0.1
2017-Jul-05 07:00N 51°48' E 003°22'0 0.0
2017-Jul-05 06:30N 51°48' E 003°22'0 0.0
2017-Jul-05 06:00N 51°48' E 003°22'0 0.0
2017-Jul-05 05:30N 51°48' E 003°22'0 0.0
2017-Jul-05 05:00N 51°48' E 003°22'0 0.0
2017-Jul-05 04:30N 51°48' E 003°22'0 0.2
2017-Jul-05 04:00N 51°48' E 003°22'0 0.3
2017-Jul-05 03:30N 51°48' E 003°22'0 0.1
2017-Jul-05 03:00N 51°48' E 003°22'0 0.0
2017-Jul-05 02:30N 51°48' E 003°22'0 0.0
2017-Jul-05 02:00N 51°48' E 003°22'0 0.0
2017-Jul-05 01:30N 51°48' E 003°22'0 0.0
2017-Jul-05 01:00N 51°48' E 003°22'0 0.0
2017-Jul-05 00:29N 51°48' E 003°22'0 0.0
2017-Jul-04 23:59N 51°48' E 003°22'0 0.0
2017-Jul-04 23:29N 51°48' E 003°22'0 0.0
2017-Jul-04 23:00N 51°48' E 003°22'0 0.0
2017-Jul-04 22:30N 51°48' E 003°22'0 0.1
2017-Jul-04 21:50N 51°48' E 003°22'0 0.0
2017-Jul-04 21:30N 51°48' E 003°22'0 0.1
2017-Jul-04 21:00N 51°48' E 003°22'2 4.1
2017-Jul-04 20:30N 51°48' E 003°19'1216.9
2017-Jul-04 19:46N 52°00' E 003°20'0 0.0
2017-Jul-04 19:30N 52°00' E 003°20'5 9.7
2017-Jul-04 19:00N 52°05' E 003°21'915.7
2017-Jul-04 18:26N 52°14' E 003°23'715.6
2017-Jul-04 18:00N 52°21' E 003°25'815.9
2017-Jul-04 17:30N 52°28' E 003°28'815.8
2017-Jul-04 16:59N 52°36' E 003°31'815.7
2017-Jul-04 16:30N 52°42' E 003°39'1615.5
2017-Jul-04 15:26N 52°55' E 003°56'817.8
2017-Jul-04 14:59N 53°01' E 004°06'15912.8
2017-Jul-04 02:37N 54°00' E 008°13'110.8
2017-Jul-04 02:30N 54°00' E 008°15'814.8
2017-Jul-04 01:59N 53°59' E 008°28'715.4
2017-Jul-04 01:30N 53°56' E 008°39'715.0
2017-Jul-04 01:00N 53°50' E 008°48'816.8
2017-Jul-04 00:30N 53°52' E 009°02'612.4
2017-Jul-04 00:00N 53°53' E 009°12'714.6
2017-Jul-03 23:31N 53°49' E 009°22'714.7
2017-Jul-03 23:01N 53°43' E 009°29'612.2
2017-Jul-03 22:31N 53°37' E 009°33'611.6
2017-Jul-03 22:00N 53°34' E 009°41'5 9.7
2017-Jul-03 21:30N 53°33' E 009°49'3 6.0
2017-Jul-03 21:01N 53°32' E 009°54'0 0.2
2017-Jul-03 20:28N 53°32' E 009°55'0 0.0
2017-Jul-03 19:58N 53°32' E 009°55'0 0.0
2017-Jul-03 19:28N 53°32' E 009°55'0 0.0
2017-Jul-03 18:58N 53°32' E 009°55'0 0.0
2017-Jul-03 18:28N 53°32' E 009°55'0 0.0
2017-Jul-03 17:58N 53°32' E 009°55'0 0.0
2017-Jul-03 17:28N 53°32' E 009°55'0 0.0
2017-Jul-03 16:58N 53°32' E 009°55'0 0.0
2017-Jul-03 16:28N 53°32' E 009°55'0 0.0
2017-Jul-03 15:55N 53°32' E 009°55'0 0.0
2017-Jul-03 15:28N 53°32' E 009°55'0 0.0
2017-Jul-03 14:58N 53°32' E 009°55'0 0.0
2017-Jul-03 13:58N 53°32' E 009°55'0 0.0
2017-Jul-03 13:28N 53°32' E 009°55'0 0.0
2017-Jul-03 12:58N 53°32' E 009°55'0 0.0
2017-Jul-03 12:28N 53°32' E 009°55'0 0.0
2017-Jul-03 11:58N 53°32' E 009°55'0 0.0
2017-Jul-03 11:28N 53°32' E 009°55'0 0.0
2017-Jul-03 10:58N 53°32' E 009°55'0 0.0
2017-Jul-03 10:28N 53°32' E 009°55'0 0.0
2017-Jul-03 09:58N 53°32' E 009°55'0 0.0
2017-Jul-03 09:28N 53°32' E 009°55'0 0.0
2017-Jul-03 08:58N 53°32' E 009°55'0 0.0
2017-Jul-03 08:28N 53°32' E 009°55'0 0.0
2017-Jul-03 07:58N 53°32' E 009°55'0 0.0
2017-Jul-03 07:28N 53°32' E 009°55'0 0.0
2017-Jul-03 06:58N 53°32' E 009°55'0 0.0
2017-Jul-03 06:28N 53°32' E 009°55'0 0.0
2017-Jul-03 05:58N 53°32' E 009°55'0 0.0
2017-Jul-03 05:28N 53°32' E 009°55'0 0.0
2017-Jul-03 04:58N 53°32' E 009°55'0 0.5
2017-Jul-03 04:30N 53°32' E 009°54'2 5.0
2017-Jul-03 04:01N 53°33' E 009°50'5 9.7
2017-Jul-03 03:30N 53°34' E 009°42'612.1
2017-Jul-03 03:00N 53°37' E 009°33'611.9
2017-Jul-03 02:30N 53°42' E 009°29'611.7
2017-Jul-03 02:00N 53°47' E 009°23'713.9
2017-Jul-03 01:31N 53°52' E 009°16'610.9
2017-Jul-03 01:00N 53°53' E 009°06'510.0
2017-Jul-03 00:30N 53°51' E 008°59'714.4
2017-Jul-03 00:01N 53°51' E 008°46'611.1
2017-Jul-02 23:30N 53°55' E 008°41'612.4
2017-Jul-02 23:00N 53°58' E 008°31'815.8
2017-Jul-02 22:30N 53°60' E 008°18'611.9
2017-Jul-02 22:00N 53°60' E 008°08'5 9.1
2017-Jul-02 21:30N 53°59' E 008°00'2 4.5
2017-Jul-02 21:00N 53°59' E 007°57'1 1.4
2017-Jul-02 20:30N 53°59' E 007°56'2 3.4
2017-Jul-02 20:00N 53°58' E 007°53'9511.5
2017-Jul-02 11:45N 53°32' E 005°19'312.4
2017-Jul-02 11:30N 53°31' E 005°14'612.4
2017-Jul-02 11:00N 53°29' E 005°04'713.4
2017-Jul-02 10:30N 53°27' E 004°53'812.7
2017-Jul-02 09:51N 53°22' E 004°42'412.9
2017-Jul-02 09:30N 53°18' E 004°38'613.0
2017-Jul-02 09:00N 53°12' E 004°34'612.5
2017-Jul-02 08:30N 53°07' E 004°29'611.5
2017-Jul-02 08:00N 53°02' E 004°24'612.0
2017-Jul-02 07:30N 52°57' E 004°19'611.9
2017-Jul-02 07:00N 52°52' E 004°14'510.4
2017-Jul-02 06:30N 52°47' E 004°09'510.0
2017-Jul-02 06:00N 52°43' E 004°04'510.0
2017-Jul-02 05:30N 52°39' E 003°59'510.0
2017-Jul-02 05:00N 52°36' E 003°53'5 9.9
2017-Jul-02 04:30N 52°32' E 003°48'5 9.9
2017-Jul-02 04:00N 52°29' E 003°42'5 9.6
2017-Jul-02 03:29N 52°25' E 003°37'5 9.4
2017-Jul-02 03:00N 52°21' E 003°32'5 9.7
2017-Jul-02 02:28N 52°18' E 003°26'510.0
2017-Jul-02 02:00N 52°14' E 003°20'510.2
2017-Jul-02 01:30N 52°11' E 003°14'610.4
2017-Jul-02 00:58N 52°07' E 003°08'510.7
2017-Jul-02 00:30N 52°04' E 003°01'612.0
2017-Jul-02 00:00N 52°00' E 002°54'510.6
2017-Jul-01 23:31N 51°58' E 002°46'814.3
2017-Jul-01 22:56N 51°56' E 002°33'614.6
2017-Jul-01 22:30N 51°55' E 002°23'714.7
2017-Jul-01 22:00N 51°53' E 002°12'612.1
2017-Jul-01 21:30N 51°51' E 002°02'713.1
2017-Jul-01 21:00N 51°48' E 001°53'816.6
2017-Jul-01 20:31N 51°51' E 001°40'611.8
2017-Jul-01 20:00N 51°47' E 001°32'917.1
2017-Jul-01 19:30N 51°40' E 001°25'1020.2
2017-Jul-01 19:00N 51°34' E 001°12'1019.1
2017-Jul-01 18:30N 51°29' E 000°59'917.6
2017-Jul-01 18:00N 51°29' E 000°45'714.0
2017-Jul-01 17:30N 51°30' E 000°34'2 4.3
2017-Jul-01 17:01N 51°30' E 000°30'0 0.0
2017-Jul-01 16:31N 51°30' E 000°30'0 0.0
2017-Jul-01 16:00N 51°30' E 000°30'0 0.0
2017-Jul-01 15:31N 51°30' E 000°30'0 0.0
2017-Jul-01 15:01N 51°30' E 000°30'0 0.0
2017-Jul-01 14:01N 51°30' E 000°30'0 0.0
2017-Jul-01 13:31N 51°30' E 000°30'0 0.0
2017-Jul-01 12:58N 51°30' E 000°30'0 0.0
2017-Jul-01 12:30N 51°30' E 000°30'0 0.0
2017-Jul-01 12:00N 51°30' E 000°30'0 0.0
2017-Jul-01 11:31N 51°30' E 000°30'0 0.0
2017-Jul-01 11:01N 51°30' E 000°30'0 0.0
2017-Jul-01 10:30N 51°30' E 000°30'0 0.0
2017-Jul-01 10:01N 51°30' E 000°30'0 0.0
2017-Jul-01 09:31N 51°30' E 000°30'0 0.0
2017-Jul-01 09:01N 51°30' E 000°30'0 0.0
2017-Jul-01 08:31N 51°30' E 000°30'0 0.0
2017-Jul-01 08:00N 51°30' E 000°30'0 0.0
2017-Jul-01 07:30N 51°30' E 000°30'0 0.0
2017-Jul-01 06:58N 51°30' E 000°30'0 0.0
2017-Jul-01 06:31N 51°30' E 000°30'0 0.0
2017-Jul-01 06:00N 51°30' E 000°30'0 0.0
2017-Jul-01 05:31N 51°30' E 000°30'0 0.0
2017-Jul-01 05:00N 51°30' E 000°30'3 5.9
2017-Jul-01 04:30N 51°30' E 000°35'815.2
2017-Jul-01 04:01N 51°29' E 000°47'715.0
2017-Jul-01 03:31N 51°29' E 000°59'815.6
2017-Jul-01 03:01N 51°33' E 001°10'815.5
2017-Jul-01 02:31N 51°37' E 001°20'815.7
2017-Jul-01 02:00N 51°43' E 001°28'815.9
2017-Jul-01 01:31N 51°49' E 001°37'5 9.6
2017-Jul-01 01:01N 51°52' E 001°43'1 2.4
2017-Jul-01 00:30N 51°52' E 001°45'4 8.8
2017-Jul-01 00:00N 51°50' E 001°52'612.7
2017-Jun-30 23:31N 51°52' E 002°01'1212.5
2017-Jun-30 22:33N 51°56' E 002°19'2 3.8
2017-Jun-30 21:58N 51°56' E 002°23'0 0.6
2017-Jun-30 21:29N 51°56' E 002°23'1 0.8
2017-Jun-30 20:48N 51°56' E 002°22'2 1.4
2017-Jun-30 19:31N 51°54' E 002°20'0 1.7
2017-Jun-30 19:26N 51°54' E 002°20'1 1.7
2017-Jun-30 19:00N 51°53' E 002°20'1 1.6
2017-Jun-30 18:30N 51°53' E 002°19'1 1.6
2017-Jun-30 18:00N 51°52' E 002°18'1 1.4
2017-Jun-30 17:30N 51°52' E 002°17'0 0.8
2017-Jun-30 17:00N 51°52' E 002°16'0 0.2
2017-Jun-30 16:30N 51°52' E 002°16'2 3.8
2017-Jun-30 16:01N 51°53' E 002°19'3 6.9
2017-Jun-30 15:30N 51°55' E 002°23'4020.2
2017-Jun-30 13:32N 52°03' E 003°27'0 0.0
2017-Jun-30 13:30N 52°03' E 003°27'0 0.0
2017-Jun-30 13:00N 52°03' E 003°27'0 0.0
2017-Jun-30 12:30N 52°03' E 003°27'0 0.0
2017-Jun-30 11:59N 52°03' E 003°27'4 8.1
2017-Jun-30 11:30N 52°03' E 003°33'4 9.0
2017-Jun-30 11:00N 52°04' E 003°40'5 9.5
2017-Jun-30 10:30N 52°03' E 003°48'4 8.6
2017-Jun-30 10:00N 52°02' E 003°55'612.7
2017-Jun-30 09:30N 51°59' E 004°04'4 8.7
2017-Jun-30 09:00N 51°57' E 004°10'3 6.6
2017-Jun-30 08:30N 51°55' E 004°14'4 8.0
2017-Jun-30 08:00N 51°54' E 004°20'3 6.7
2017-Jun-30 07:31N 51°54' E 004°26'1 1.2
2017-Jun-30 07:00N 51°54' E 004°26'0 0.0
2017-Jun-30 06:30N 51°54' E 004°26'0 0.0
2017-Jun-30 06:00N 51°54' E 004°26'0 0.0
2017-Jun-30 05:30N 51°54' E 004°26'0 0.0
2017-Jun-30 05:00N 51°54' E 004°26'0 0.0
2017-Jun-30 04:30N 51°54' E 004°26'0 0.0
2017-Jun-30 04:00N 51°54' E 004°26'0 0.0
2017-Jun-30 03:30N 51°54' E 004°26'0 0.0
2017-Jun-30 03:00N 51°54' E 004°26'0 0.0
2017-Jun-30 02:30N 51°54' E 004°26'0 0.0
2017-Jun-30 02:00N 51°54' E 004°26'0 0.0
2017-Jun-30 01:30N 51°54' E 004°26'0 0.0
2017-Jun-30 01:00N 51°54' E 004°26'0 0.0
2017-Jun-30 00:29N 51°54' E 004°26'0 0.0
2017-Jun-30 00:00N 51°54' E 004°26'0 0.0
2017-Jun-29 23:30N 51°54' E 004°26'0 0.0
2017-Jun-29 22:59N 51°54' E 004°26'0 0.0
2017-Jun-29 22:30N 51°54' E 004°26'0 0.0
2017-Jun-29 22:00N 51°54' E 004°26'0 0.0
2017-Jun-29 21:30N 51°54' E 004°26'0 0.0
2017-Jun-29 21:00N 51°54' E 004°26'0 0.0
2017-Jun-29 20:30N 51°54' E 004°26'0 0.0
2017-Jun-29 20:00N 51°54' E 004°26'0 0.0
2017-Jun-29 19:30N 51°54' E 004°26'0 0.0
2017-Jun-29 19:00N 51°54' E 004°26'0 0.0
2017-Jun-29 18:30N 51°54' E 004°26'0 0.0
2017-Jun-29 18:00N 51°54' E 004°26'0 0.0
2017-Jun-29 17:30N 51°54' E 004°26'0 0.0
2017-Jun-29 17:00N 51°54' E 004°26'0 0.0
2017-Jun-29 16:30N 51°54' E 004°26'0 0.0
2017-Jun-29 15:59N 51°54' E 004°26'0 0.0
2017-Jun-29 15:30N 51°54' E 004°26'0 0.0
2017-Jun-29 15:00N 51°54' E 004°26'0 0.0
2017-Jun-29 14:00N 51°54' E 004°26'0 0.0
2017-Jun-29 13:30N 51°54' E 004°26'0 0.0
2017-Jun-29 13:00N 51°54' E 004°26'0 0.0
2017-Jun-29 12:29N 51°54' E 004°26'0 0.0
2017-Jun-29 12:00N 51°54' E 004°26'0 0.6
2017-Jun-29 11:30N 51°54' E 004°26'2 3.2
2017-Jun-29 11:00N 51°54' E 004°24'4 8.9
2017-Jun-29 10:30N 51°54' E 004°17'510.4
2017-Jun-29 10:00N 51°57' E 004°10'611.9
2017-Jun-29 09:31N 51°60' E 004°01'714.8
2017-Jun-29 09:00N 51°60' E 003°49'5 9.8
2017-Jun-29 08:30N 51°59' E 003°41'5313.7
2017-Jun-29 04:39N 51°37' E 002°23'215.0
2017-Jun-29 04:30N 51°35' E 002°21'714.9
2017-Jun-29 04:00N 51°30' E 002°13'714.8
2017-Jun-29 03:30N 51°24' E 002°05'714.8
2017-Jun-29 03:00N 51°19' E 001°57'815.4
2017-Jun-29 02:30N 51°13' E 001°49'917.1
2017-Jun-29 02:01N 51°07' E 001°40'816.3
2017-Jun-29 01:30N 51°00' E 001°32'1016.2
2017-Jun-29 00:52N 50°52' E 001°24'  
Track history (hours):
 
Tides and Currents Weather Stations Pressure Air Temp Water Temp Dewpoint Dewpoint Depression Visibility Wind Speed Wind Dir Waves Ship Positions

CMA-CGM Fort Saint Pierre

Last reported at 2017-Jul-09 00:15 UTC. Time now 2017-Jul-21 22:49 UTC.
Position N 49°36' W 007°37'.
Warning: this ship's position is 12 days out of date.

Length 197 m; beam 30 m.

Type: Ship (hazmat cat D). MMSI: 226328000.

Date/timePositionNaut miles runAvg speedWind from/ knotsBaromVisibWave heightAir tempDewpointWater temp
2017-Jul-09 00:15N 49°36' W 007°37'518.5
2017-Jul-09 00:00N 49°37' W 007°30'918.9
2017-Jul-08 23:30N 49°40' W 007°16'918.6
2017-Jul-08 23:00N 49°40' W 007°02'1019.0
2017-Jul-08 22:30N 49°41' W 006°47'1818.9
2017-Jul-08 21:34N 49°43' W 006°20'219.4
2017-Jul-08 21:26N 49°44' W 006°16'1219.1
2017-Jul-08 20:48N 49°45' W 005°57'818.8
2017-Jul-08 20:21N 49°46' W 005°45'917.6
2017-Jul-08 19:52N 49°47' W 005°31'615.4
2017-Jul-08 19:28N 49°48' W 005°22'715.2
2017-Jul-08 19:00N 49°49' W 005°11'714.8
2017-Jul-08 18:30N 49°50' W 004°60'714.7
2017-Jul-08 18:00N 49°51' W 004°48'714.6
2017-Jul-08 17:30N 49°52' W 004°37'714.4
2017-Jul-08 17:00N 49°53' W 004°26'714.5
2017-Jul-08 16:30N 49°53' W 004°15'714.6
2017-Jul-08 16:00N 49°54' W 004°04'714.9
2017-Jul-08 15:30N 49°55' W 003°52'815.6
2017-Jul-08 15:00N 49°56' W 003°40'1818.1
2017-Jul-08 14:00N 49°59' W 003°12'816.8
2017-Jul-08 13:31N 49°60' W 002°60'917.1
2017-Jul-08 13:00N 50°02' W 002°47'1217.3
2017-Jul-08 12:18N 50°04' W 002°28'517.2
2017-Jul-08 12:00N 50°04' W 002°20'817.0
2017-Jul-08 11:30N 50°05' W 002°07'1316.0
2017-Jul-08 10:42N 50°05' W 001°47'614.6
2017-Jul-08 10:16N 49°59' W 001°41'5213.5
2017-Jul-08 06:23N 49°37' W 000°28'513.5
2017-Jul-08 05:59N 49°35' W 000°20'714.2
2017-Jul-08 05:31N 49°32' W 000°11'612.7
2017-Jul-08 05:00N 49°30' W 000°01'510.4
2017-Jul-08 04:31N 49°28' E 000°06'3 5.3
2017-Jul-08 04:00N 49°27' E 000°10'0 0.0
2017-Jul-08 03:30N 49°27' E 000°10'0 0.0
2017-Jul-08 03:00N 49°27' E 000°10'0 0.0
2017-Jul-08 02:30N 49°27' E 000°10'0 0.0
2017-Jul-08 02:00N 49°27' E 000°10'0 0.0
2017-Jul-08 01:30N 49°27' E 000°10'0 0.0
2017-Jul-08 01:00N 49°27' E 000°10'0 0.0
2017-Jul-08 00:30N 49°27' E 000°10'0 0.0
2017-Jul-08 00:00N 49°27' E 000°10'0 0.0
2017-Jul-07 23:30N 49°27' E 000°10'0 0.0
2017-Jul-07 23:00N 49°27' E 000°10'0 0.0
2017-Jul-07 22:30N 49°27' E 000°10'0 0.0
2017-Jul-07 22:00N 49°27' E 000°10'0 0.0
2017-Jul-07 21:30N 49°27' E 000°10'0 0.0
2017-Jul-07 21:00N 49°27' E 000°10'0 0.0
2017-Jul-07 20:30N 49°27' E 000°10'0 0.0
2017-Jul-07 20:00N 49°27' E 000°10'0 0.0
2017-Jul-07 19:30N 49°27' E 000°10'0 0.0
2017-Jul-07 19:00N 49°27' E 000°10'0 0.4
2017-Jul-07 18:31N 49°27' E 000°10'2 4.4
2017-Jul-07 18:01N 49°28' E 000°06'714.2
2017-Jul-07 17:30N 49°30' W 000°04'510.5
2017-Jul-07 17:00N 49°33' W 000°11'3 5.5
2017-Jul-07 16:30N 49°36' W 000°11'611.9
2017-Jul-07 16:00N 49°42' W 000°11'613.1
2017-Jul-07 15:31N 49°48' W 000°11'612.9
2017-Jul-07 15:00N 49°55' W 000°11'1312.8
2017-Jul-07 14:00N 50°07' W 000°11'713.4
2017-Jul-07 13:30N 50°14' W 000°11'714.8
2017-Jul-07 13:00N 50°21' W 000°11'917.4
2017-Jul-07 12:30N 50°28' W 000°01'918.4
2017-Jul-07 12:01N 50°31' E 000°12'918.4
2017-Jul-07 11:30N 50°33' E 000°27'917.8
2017-Jul-07 11:01N 50°35' E 000°40'917.3
2017-Jul-07 10:31N 50°40' E 000°51'917.0
2017-Jul-07 10:00N 50°45' E 001°02'816.5
2017-Jul-07 09:30N 50°50' E 001°12'815.4
2017-Jul-07 09:00N 50°56' E 001°20'713.2
2017-Jul-07 08:30N 51°01' E 001°28'714.2
2017-Jul-07 08:00N 51°06' E 001°36'815.4
2017-Jul-07 07:30N 51°11' E 001°44'815.5
2017-Jul-07 07:00N 51°18' E 001°51'918.5
2017-Jul-07 06:31N 51°25' E 002°01'816.3
2017-Jul-07 06:00N 51°21' E 002°13'3 7.0
2017-Jul-07 05:30N 51°20' E 002°18'1 2.2
2017-Jul-07 05:00N 51°21' E 002°20'4 7.4
2017-Jul-07 04:30N 51°22' E 002°26'917.7
2017-Jul-07 04:00N 51°23' E 002°40'612.7
2017-Jul-07 03:31N 51°22' E 002°50'917.3
2017-Jul-07 03:00N 51°24' E 003°03'917.8
2017-Jul-07 02:30N 51°25' E 003°17'918.1
2017-Jul-07 02:00N 51°26' E 003°32'611.4
2017-Jul-07 01:30N 51°26' E 003°41'715.0
2017-Jul-07 01:00N 51°21' E 003°50'814.7
2017-Jul-07 00:29N 51°26' E 003°59'612.2
2017-Jul-07 00:00N 51°22' E 004°06'4 9.2
2017-Jul-06 23:31N 51°22' E 004°13'2 9.8
2017-Jul-06 23:16N 51°21' E 004°16'43 1.1
2017-Jul-05 08:30N 51°48' E 003°22'0 0.0
2017-Jul-05 08:00N 51°48' E 003°22'0 0.0
2017-Jul-05 07:30N 51°48' E 003°22'0 0.1
2017-Jul-05 07:00N 51°48' E 003°22'0 0.0
2017-Jul-05 06:30N 51°48' E 003°22'0 0.0
2017-Jul-05 06:00N 51°48' E 003°22'0 0.0
2017-Jul-05 05:30N 51°48' E 003°22'0 0.0
2017-Jul-05 05:00N 51°48' E 003°22'0 0.0
2017-Jul-05 04:30N 51°48' E 003°22'0 0.2
2017-Jul-05 04:00N 51°48' E 003°22'0 0.3
2017-Jul-05 03:30N 51°48' E 003°22'0 0.1
2017-Jul-05 03:00N 51°48' E 003°22'0 0.0
2017-Jul-05 02:30N 51°48' E 003°22'0 0.0
2017-Jul-05 02:00N 51°48' E 003°22'0 0.0
2017-Jul-05 01:30N 51°48' E 003°22'0 0.0
2017-Jul-05 01:00N 51°48' E 003°22'0 0.0
2017-Jul-05 00:29N 51°48' E 003°22'0 0.0
2017-Jul-04 23:59N 51°48' E 003°22'0 0.0
2017-Jul-04 23:29N 51°48' E 003°22'0 0.0
2017-Jul-04 23:00N 51°48' E 003°22'0 0.0
2017-Jul-04 22:30N 51°48' E 003°22'0 0.1
2017-Jul-04 21:50N 51°48' E 003°22'0 0.0
2017-Jul-04 21:30N 51°48' E 003°22'0 0.1
2017-Jul-04 21:00N 51°48' E 003°22'2 4.1
2017-Jul-04 20:30N 51°48' E 003°19'1216.9
2017-Jul-04 19:46N 52°00' E 003°20'0 0.0
2017-Jul-04 19:30N 52°00' E 003°20'5 9.7
2017-Jul-04 19:00N 52°05' E 003°21'915.7
2017-Jul-04 18:26N 52°14' E 003°23'715.6
2017-Jul-04 18:00N 52°21' E 003°25'815.9
2017-Jul-04 17:30N 52°28' E 003°28'815.8
2017-Jul-04 16:59N 52°36' E 003°31'815.7
2017-Jul-04 16:30N 52°42' E 003°39'1615.5
2017-Jul-04 15:26N 52°55' E 003°56'817.8
2017-Jul-04 14:59N 53°01' E 004°06'15912.8
2017-Jul-04 02:37N 54°00' E 008°13'110.8
2017-Jul-04 02:30N 54°00' E 008°15'814.8
2017-Jul-04 01:59N 53°59' E 008°28'715.4
2017-Jul-04 01:30N 53°56' E 008°39'715.0
2017-Jul-04 01:00N 53°50' E 008°48'816.8
2017-Jul-04 00:30N 53°52' E 009°02'612.4
2017-Jul-04 00:00N 53°53' E 009°12'714.6
2017-Jul-03 23:31N 53°49' E 009°22'714.7
2017-Jul-03 23:01N 53°43' E 009°29'612.2
2017-Jul-03 22:31N 53°37' E 009°33'611.6
2017-Jul-03 22:00N 53°34' E 009°41'5 9.7
2017-Jul-03 21:30N 53°33' E 009°49'3 6.0
2017-Jul-03 21:01N 53°32' E 009°54'0 0.2
2017-Jul-03 20:28N 53°32' E 009°55'0 0.0
2017-Jul-03 19:58N 53°32' E 009°55'0 0.0
2017-Jul-03 19:28N 53°32' E 009°55'0 0.0
2017-Jul-03 18:58N 53°32' E 009°55'0 0.0
2017-Jul-03 18:28N 53°32' E 009°55'0 0.0
2017-Jul-03 17:58N 53°32' E 009°55'0 0.0
2017-Jul-03 17:28N 53°32' E 009°55'0 0.0
2017-Jul-03 16:58N 53°32' E 009°55'0 0.0
2017-Jul-03 16:28N 53°32' E 009°55'0 0.0
2017-Jul-03 15:55N 53°32' E 009°55'0 0.0
2017-Jul-03 15:28N 53°32' E 009°55'0 0.0
2017-Jul-03 14:58N 53°32' E 009°55'0 0.0
2017-Jul-03 13:58N 53°32' E 009°55'0 0.0
2017-Jul-03 13:28N 53°32' E 009°55'0 0.0
2017-Jul-03 12:58N 53°32' E 009°55'0 0.0
2017-Jul-03 12:28N 53°32' E 009°55'0 0.0
2017-Jul-03 11:58N 53°32' E 009°55'0 0.0
2017-Jul-03 11:28N 53°32' E 009°55'0 0.0
2017-Jul-03 10:58N 53°32' E 009°55'0 0.0
2017-Jul-03 10:28N 53°32' E 009°55'0 0.0
2017-Jul-03 09:58N 53°32' E 009°55'0 0.0
2017-Jul-03 09:28N 53°32' E 009°55'0 0.0
2017-Jul-03 08:58N 53°32' E 009°55'0 0.0
2017-Jul-03 08:28N 53°32' E 009°55'0 0.0
2017-Jul-03 07:58N 53°32' E 009°55'0 0.0
2017-Jul-03 07:28N 53°32' E 009°55'0 0.0
2017-Jul-03 06:58N 53°32' E 009°55'0 0.0
2017-Jul-03 06:28N 53°32' E 009°55'0 0.0
2017-Jul-03 05:58N 53°32' E 009°55'0 0.0
2017-Jul-03 05:28N 53°32' E 009°55'0 0.0
2017-Jul-03 04:58N 53°32' E 009°55'0 0.5
2017-Jul-03 04:30N 53°32' E 009°54'2 5.0
2017-Jul-03 04:01N 53°33' E 009°50'5 9.7
2017-Jul-03 03:30N 53°34' E 009°42'612.1
2017-Jul-03 03:00N 53°37' E 009°33'611.9
2017-Jul-03 02:30N 53°42' E 009°29'611.7
2017-Jul-03 02:00N 53°47' E 009°23'713.9
2017-Jul-03 01:31N 53°52' E 009°16'610.9
2017-Jul-03 01:00N 53°53' E 009°06'510.0
2017-Jul-03 00:30N 53°51' E 008°59'714.4
2017-Jul-03 00:01N 53°51' E 008°46'611.1
2017-Jul-02 23:30N 53°55' E 008°41'612.4
2017-Jul-02 23:00N 53°58' E 008°31'815.8
2017-Jul-02 22:30N 53°60' E 008°18'611.9
2017-Jul-02 22:00N 53°60' E 008°08'5 9.1
2017-Jul-02 21:30N 53°59' E 008°00'2 4.5
2017-Jul-02 21:00N 53°59' E 007°57'1 1.4
2017-Jul-02 20:30N 53°59' E 007°56'2 3.4
2017-Jul-02 20:00N 53°58' E 007°53'9511.5
2017-Jul-02 11:45N 53°32' E 005°19'312.4
2017-Jul-02 11:30N 53°31' E 005°14'612.4
2017-Jul-02 11:00N 53°29' E 005°04'713.4
2017-Jul-02 10:30N 53°27' E 004°53'812.7
2017-Jul-02 09:51N 53°22' E 004°42'412.9
2017-Jul-02 09:30N 53°18' E 004°38'613.0
2017-Jul-02 09:00N 53°12' E 004°34'612.5
2017-Jul-02 08:30N 53°07' E 004°29'611.5
2017-Jul-02 08:00N 53°02' E 004°24'612.0
2017-Jul-02 07:30N 52°57' E 004°19'611.9
2017-Jul-02 07:00N 52°52' E 004°14'510.4
2017-Jul-02 06:30N 52°47' E 004°09'510.0
2017-Jul-02 06:00N 52°43' E 004°04'510.0
2017-Jul-02 05:30N 52°39' E 003°59'510.0
2017-Jul-02 05:00N 52°36' E 003°53'5 9.9
2017-Jul-02 04:30N 52°32' E 003°48'5 9.9
2017-Jul-02 04:00N 52°29' E 003°42'5 9.6
2017-Jul-02 03:29N 52°25' E 003°37'5 9.4
2017-Jul-02 03:00N 52°21' E 003°32'5 9.7
2017-Jul-02 02:28N 52°18' E 003°26'510.0
2017-Jul-02 02:00N 52°14' E 003°20'510.2
2017-Jul-02 01:30N 52°11' E 003°14'610.4
2017-Jul-02 00:58N 52°07' E 003°08'510.7
2017-Jul-02 00:30N 52°04' E 003°01'612.0
2017-Jul-02 00:00N 52°00' E 002°54'510.6
2017-Jul-01 23:31N 51°58' E 002°46'814.3
2017-Jul-01 22:56N 51°56' E 002°33'614.6
2017-Jul-01 22:30N 51°55' E 002°23'714.7
2017-Jul-01 22:00N 51°53' E 002°12'612.1
2017-Jul-01 21:30N 51°51' E 002°02'713.1
2017-Jul-01 21:00N 51°48' E 001°53'816.6
2017-Jul-01 20:31N 51°51' E 001°40'611.8
2017-Jul-01 20:00N 51°47' E 001°32'917.1
2017-Jul-01 19:30N 51°40' E 001°25'1020.2
2017-Jul-01 19:00N 51°34' E 001°12'1019.1
2017-Jul-01 18:30N 51°29' E 000°59'917.6
2017-Jul-01 18:00N 51°29' E 000°45'714.0
2017-Jul-01 17:30N 51°30' E 000°34'2 4.3
2017-Jul-01 17:01N 51°30' E 000°30'0 0.0
2017-Jul-01 16:31N 51°30' E 000°30'0 0.0
2017-Jul-01 16:00N 51°30' E 000°30'0 0.0
2017-Jul-01 15:31N 51°30' E 000°30'0 0.0
2017-Jul-01 15:01N 51°30' E 000°30'0 0.0
2017-Jul-01 14:01N 51°30' E 000°30'0 0.0
2017-Jul-01 13:31N 51°30' E 000°30'0 0.0
2017-Jul-01 12:58N 51°30' E 000°30'0 0.0
2017-Jul-01 12:30N 51°30' E 000°30'0 0.0
2017-Jul-01 12:00N 51°30' E 000°30'0 0.0
2017-Jul-01 11:31N 51°30' E 000°30'0 0.0
2017-Jul-01 11:01N 51°30' E 000°30'0 0.0
2017-Jul-01 10:30N 51°30' E 000°30'0 0.0
2017-Jul-01 10:01N 51°30' E 000°30'0 0.0
2017-Jul-01 09:31N 51°30' E 000°30'0 0.0
2017-Jul-01 09:01N 51°30' E 000°30'0 0.0
2017-Jul-01 08:31N 51°30' E 000°30'0 0.0
2017-Jul-01 08:00N 51°30' E 000°30'0 0.0
2017-Jul-01 07:30N 51°30' E 000°30'0 0.0
2017-Jul-01 06:58N 51°30' E 000°30'0 0.0
2017-Jul-01 06:31N 51°30' E 000°30'0 0.0
2017-Jul-01 06:00N 51°30' E 000°30'0 0.0
2017-Jul-01 05:31N 51°30' E 000°30'0 0.0
2017-Jul-01 05:00N 51°30' E 000°30'3 5.9
2017-Jul-01 04:30N 51°30' E 000°35'815.2
2017-Jul-01 04:01N 51°29' E 000°47'715.0
2017-Jul-01 03:31N 51°29' E 000°59'815.6
2017-Jul-01 03:01N 51°33' E 001°10'815.5
2017-Jul-01 02:31N 51°37' E 001°20'815.7
2017-Jul-01 02:00N 51°43' E 001°28'815.9
2017-Jul-01 01:31N 51°49' E 001°37'5 9.6
2017-Jul-01 01:01N 51°52' E 001°43'1 2.4
2017-Jul-01 00:30N 51°52' E 001°45'4 8.8
2017-Jul-01 00:00N 51°50' E 001°52'612.7
2017-Jun-30 23:31N 51°52' E 002°01'1212.5
2017-Jun-30 22:33N 51°56' E 002°19'2 3.8
2017-Jun-30 21:58N 51°56' E 002°23'0 0.6
2017-Jun-30 21:29N 51°56' E 002°23'1 0.8
2017-Jun-30 20:48N 51°56' E 002°22'2 1.4
2017-Jun-30 19:31N 51°54' E 002°20'0 1.7
2017-Jun-30 19:26N 51°54' E 002°20'1 1.7
2017-Jun-30 19:00N 51°53' E 002°20'1 1.6
2017-Jun-30 18:30N 51°53' E 002°19'1 1.6
2017-Jun-30 18:00N 51°52' E 002°18'1 1.4
2017-Jun-30 17:30N 51°52' E 002°17'0 0.8
2017-Jun-30 17:00N 51°52' E 002°16'0 0.2
2017-Jun-30 16:30N 51°52' E 002°16'2 3.8
2017-Jun-30 16:01N 51°53' E 002°19'3 6.9
2017-Jun-30 15:30N 51°55' E 002°23'4020.2
2017-Jun-30 13:32N 52°03' E 003°27'0 0.0
2017-Jun-30 13:30N 52°03' E 003°27'0 0.0
2017-Jun-30 13:00N 52°03' E 003°27'0 0.0
2017-Jun-30 12:30N 52°03' E 003°27'0 0.0
2017-Jun-30 11:59N 52°03' E 003°27'4 8.1
2017-Jun-30 11:30N 52°03' E 003°33'4 9.0
2017-Jun-30 11:00N 52°04' E 003°40'5 9.5
2017-Jun-30 10:30N 52°03' E 003°48'4 8.6
2017-Jun-30 10:00N 52°02' E 003°55'612.7
2017-Jun-30 09:30N 51°59' E 004°04'4 8.7
2017-Jun-30 09:00N 51°57' E 004°10'3 6.6
2017-Jun-30 08:30N 51°55' E 004°14'4 8.0
2017-Jun-30 08:00N 51°54' E 004°20'3 6.7
2017-Jun-30 07:31N 51°54' E 004°26'1 1.2
2017-Jun-30 07:00N 51°54' E 004°26'0 0.0
2017-Jun-30 06:30N 51°54' E 004°26'0 0.0
2017-Jun-30 06:00N 51°54' E 004°26'0 0.0
2017-Jun-30 05:30N 51°54' E 004°26'0 0.0
2017-Jun-30 05:00N 51°54' E 004°26'0 0.0
2017-Jun-30 04:30N 51°54' E 004°26'0 0.0
2017-Jun-30 04:00N 51°54' E 004°26'0 0.0
2017-Jun-30 03:30N 51°54' E 004°26'0 0.0
2017-Jun-30 03:00N 51°54' E 004°26'0 0.0
2017-Jun-30 02:30N 51°54' E 004°26'0 0.0
2017-Jun-30 02:00N 51°54' E 004°26'0 0.0
2017-Jun-30 01:30N 51°54' E 004°26'0 0.0
2017-Jun-30 01:00N 51°54' E 004°26'0 0.0
2017-Jun-30 00:29N 51°54' E 004°26'0 0.0
2017-Jun-30 00:00N 51°54' E 004°26'0 0.0
2017-Jun-29 23:30N 51°54' E 004°26'0 0.0
2017-Jun-29 22:59N 51°54' E 004°26'0 0.0
2017-Jun-29 22:30N 51°54' E 004°26'0 0.0
2017-Jun-29 22:00N 51°54' E 004°26'0 0.0
2017-Jun-29 21:30N 51°54' E 004°26'0 0.0
2017-Jun-29 21:00N 51°54' E 004°26'0 0.0
2017-Jun-29 20:30N 51°54' E 004°26'0 0.0
2017-Jun-29 20:00N 51°54' E 004°26'0 0.0
2017-Jun-29 19:30N 51°54' E 004°26'0 0.0
2017-Jun-29 19:00N 51°54' E 004°26'0 0.0
2017-Jun-29 18:30N 51°54' E 004°26'0 0.0
2017-Jun-29 18:00N 51°54' E 004°26'0 0.0
2017-Jun-29 17:30N 51°54' E 004°26'0 0.0
2017-Jun-29 17:00N 51°54' E 004°26'0 0.0
2017-Jun-29 16:30N 51°54' E 004°26'0 0.0
2017-Jun-29 15:59N 51°54' E 004°26'0 0.0
2017-Jun-29 15:30N 51°54' E 004°26'0 0.0
2017-Jun-29 15:00N 51°54' E 004°26'0 0.0
2017-Jun-29 14:00N 51°54' E 004°26'0 0.0
2017-Jun-29 13:30N 51°54' E 004°26'0 0.0
2017-Jun-29 13:00N 51°54' E 004°26'0 0.0
2017-Jun-29 12:29N 51°54' E 004°26'0 0.0
2017-Jun-29 12:00N 51°54' E 004°26'0 0.6
2017-Jun-29 11:30N 51°54' E 004°26'2 3.2
2017-Jun-29 11:00N 51°54' E 004°24'4 8.9
2017-Jun-29 10:30N 51°54' E 004°17'510.4
2017-Jun-29 10:00N 51°57' E 004°10'611.9
2017-Jun-29 09:31N 51°60' E 004°01'714.8
2017-Jun-29 09:00N 51°60' E 003°49'5 9.8
2017-Jun-29 08:30N 51°59' E 003°41'5313.7
2017-Jun-29 04:39N 51°37' E 002°23'215.0
2017-Jun-29 04:30N 51°35' E 002°21'714.9
2017-Jun-29 04:00N 51°30' E 002°13'714.8
2017-Jun-29 03:30N 51°24' E 002°05'714.8
2017-Jun-29 03:00N 51°19' E 001°57'815.4
2017-Jun-29 02:30N 51°13' E 001°49'917.1
2017-Jun-29 02:01N 51°07' E 001°40'816.3
2017-Jun-29 01:30N 51°00' E 001°32'1016.2
2017-Jun-29 00:52N 50°52' E 001°24'  

Dump ship's entire track history